sensor_id;sensor_type;location;lat;lon;timestamp;pressure;altitude;pressure_sealevel;temperature;humidity
71344;BME280;59146;43.850;25.948;2023-07-09T00:02:15;101231.97;;;18.99;75.54
71344;BME280;59146;43.850;25.948;2023-07-09T00:04:41;101234.66;;;18.88;73.96
71344;BME280;59146;43.850;25.948;2023-07-09T00:09:55;101251.81;;;18.93;70.52
71344;BME280;59146;43.850;25.948;2023-07-09T00:12:21;101294.59;;;19.10;70.42
71344;BME280;59146;43.850;25.948;2023-07-09T00:14:47;101295.69;;;19.07;70.73
71344;BME280;59146;43.850;25.948;2023-07-09T00:17:19;101298.66;;;18.93;71.59
71344;BME280;59146;43.850;25.948;2023-07-09T00:19:46;101306.78;;;18.80;72.88
71344;BME280;59146;43.850;25.948;2023-07-09T00:22:16;101299.50;;;18.62;73.26
71344;BME280;59146;43.850;25.948;2023-07-09T00:24:44;101311.03;;;18.61;73.02
71344;BME280;59146;43.850;25.948;2023-07-09T00:27:11;101270.81;;;18.24;73.77
71344;BME280;59146;43.850;25.948;2023-07-09T00:29:37;101259.41;;;18.12;73.84
71344;BME280;59146;43.850;25.948;2023-07-09T00:32:02;101309.63;;;18.46;74.31
71344;BME280;59146;43.850;25.948;2023-07-09T00:34:28;101292.56;;;18.27;74.02
71344;BME280;59146;43.850;25.948;2023-07-09T00:36:53;101288.47;;;18.23;74.58
71344;BME280;59146;43.850;25.948;2023-07-09T00:39:21;101249.59;;;18.03;74.55
71344;BME280;59146;43.850;25.948;2023-07-09T00:41:48;101296.63;;;18.32;74.08
71344;BME280;59146;43.850;25.948;2023-07-09T00:49:11;101253.75;;;18.06;73.06
71344;BME280;59146;43.850;25.948;2023-07-09T00:51:44;101294.38;;;18.49;72.40
71344;BME280;59146;43.850;25.948;2023-07-09T00:54:35;101283.16;;;18.46;72.50
71344;BME280;59146;43.850;25.948;2023-07-09T00:57:11;101304.09;;;18.49;72.63
71344;BME280;59146;43.850;25.948;2023-07-09T00:59:39;101158.09;;;17.58;73.05
71344;BME280;59146;43.850;25.948;2023-07-09T01:02:07;101280.28;;;18.38;72.55
71344;BME280;59146;43.850;25.948;2023-07-09T01:04:33;101255.53;;;18.27;72.10
71344;BME280;59146;43.850;25.948;2023-07-09T01:07:00;101277.00;;;18.56;71.61
71344;BME280;59146;43.850;25.948;2023-07-09T01:09:25;101266.81;;;18.41;71.10
71344;BME280;59146;43.850;25.948;2023-07-09T01:11:52;101235.31;;;18.38;71.07
71344;BME280;59146;43.850;25.948;2023-07-09T01:14:22;101286.13;;;18.63;70.87
71344;BME280;59146;43.850;25.948;2023-07-09T01:16:53;101296.59;;;18.65;70.74
71344;BME280;59146;43.850;25.948;2023-07-09T01:19:27;101287.22;;;18.61;70.11
71344;BME280;59146;43.850;25.948;2023-07-09T01:22:00;101174.25;;;17.98;70.11
71344;BME280;59146;43.850;25.948;2023-07-09T01:24:52;101303.44;;;18.67;69.82
71344;BME280;59146;43.850;25.948;2023-07-09T01:27:40;101305.94;;;18.69;69.69
71344;BME280;59146;43.850;25.948;2023-07-09T01:30:18;101299.88;;;18.57;70.39
71344;BME280;59146;43.850;25.948;2023-07-09T01:32:47;101291.78;;;18.59;69.92
71344;BME280;59146;43.850;25.948;2023-07-09T01:35:15;101249.75;;;18.22;70.33
71344;BME280;59146;43.850;25.948;2023-07-09T01:37:41;101283.63;;;18.40;70.82
71344;BME280;59146;43.850;25.948;2023-07-09T01:40:09;101294.09;;;18.52;70.88
71344;BME280;59146;43.850;25.948;2023-07-09T01:42:35;101306.31;;;18.64;70.56
71344;BME280;59146;43.850;25.948;2023-07-09T01:45:05;101262.75;;;18.25;71.29
71344;BME280;59146;43.850;25.948;2023-07-09T01:47:31;101267.59;;;17.98;72.91
71344;BME280;59146;43.850;25.948;2023-07-09T01:49:57;101300.41;;;18.18;73.20
71344;BME280;59146;43.850;25.948;2023-07-09T01:52:23;101310.00;;;18.30;73.36
71344;BME280;59146;43.850;25.948;2023-07-09T01:54:52;101265.69;;;18.00;73.28
71344;BME280;59146;43.850;25.948;2023-07-09T01:57:23;101290.66;;;17.85;74.69
71344;BME280;59146;43.850;25.948;2023-07-09T01:59:53;101314.44;;;17.85;76.42
71344;BME280;59146;43.850;25.948;2023-07-09T02:02:20;101281.66;;;17.66;76.45
71344;BME280;59146;43.850;25.948;2023-07-09T02:04:48;101282.72;;;17.52;76.98
71344;BME280;59146;43.850;25.948;2023-07-09T02:07:14;101329.00;;;17.91;76.78
71344;BME280;59146;43.850;25.948;2023-07-09T02:09:40;101323.09;;;17.87;76.84
71344;BME280;59146;43.850;25.948;2023-07-09T02:12:06;101326.94;;;17.83;77.42
71344;BME280;59146;43.850;25.948;2023-07-09T02:14:32;101343.16;;;17.68;78.76
71344;BME280;59146;43.850;25.948;2023-07-09T02:16:57;101326.91;;;17.72;78.72
71344;BME280;59146;43.850;25.948;2023-07-09T02:19:22;101291.22;;;17.44;79.64
71344;BME280;59146;43.850;25.948;2023-07-09T02:21:48;101300.13;;;17.55;79.88
71344;BME280;59146;43.850;25.948;2023-07-09T02:24:13;101355.53;;;17.78;79.73
71344;BME280;59146;43.850;25.948;2023-07-09T02:26:38;101255.25;;;17.09;80.17
71344;BME280;59146;43.850;25.948;2023-07-09T02:29:04;101321.06;;;17.34;81.27
71344;BME280;59146;43.850;25.948;2023-07-09T02:31:30;101365.09;;;17.68;81.56
71344;BME280;59146;43.850;25.948;2023-07-09T02:33:56;101305.59;;;17.40;81.66
71344;BME280;59146;43.850;25.948;2023-07-09T02:36:24;101308.59;;;17.47;81.64
71344;BME280;59146;43.850;25.948;2023-07-09T02:38:49;101292.25;;;17.31;82.23
71344;BME280;59146;43.850;25.948;2023-07-09T02:41:15;101362.38;;;17.70;82.57
71344;BME280;59146;43.850;25.948;2023-07-09T02:43:40;101388.56;;;17.84;83.22
71344;BME280;59146;43.850;25.948;2023-07-09T02:46:06;101290.34;;;17.33;82.81
71344;BME280;59146;43.850;25.948;2023-07-09T02:48:31;101342.06;;;17.70;82.41
71344;BME280;59146;43.850;25.948;2023-07-09T02:50:57;101349.50;;;17.76;82.47
71344;BME280;59146;43.850;25.948;2023-07-09T02:53:22;101303.03;;;17.63;82.01
71344;BME280;59146;43.850;25.948;2023-07-09T02:55:47;101303.28;;;17.71;81.09
71344;BME280;59146;43.850;25.948;2023-07-09T02:58:13;101366.13;;;18.00;80.33
71344;BME280;59146;43.850;25.948;2023-07-09T03:00:38;101383.91;;;18.09;79.94
71344;BME280;59146;43.850;25.948;2023-07-09T03:03:04;101364.19;;;18.02;79.24
71344;BME280;59146;43.850;25.948;2023-07-09T03:05:29;101317.22;;;17.84;78.40
71344;BME280;59146;43.850;25.948;2023-07-09T03:07:54;101346.91;;;17.98;78.27
71344;BME280;59146;43.850;25.948;2023-07-09T03:10:20;101378.38;;;18.23;77.56
71344;BME280;59146;43.850;25.948;2023-07-09T03:12:45;101376.97;;;18.53;76.66
71344;BME280;59146;43.850;25.948;2023-07-09T03:15:11;101348.38;;;19.42;72.65
71344;BME280;59146;43.850;25.948;2023-07-09T03:17:37;101387.06;;;21.91;63.93
71344;BME280;59146;43.850;25.948;2023-07-09T03:20:02;101355.88;;;23.45;57.31
71344;BME280;59146;43.850;25.948;2023-07-09T03:22:28;101342.25;;;24.91;51.99
71344;BME280;59146;43.850;25.948;2023-07-09T03:24:53;101367.38;;;25.54;49.27
71344;BME280;59146;43.850;25.948;2023-07-09T03:27:19;101335.00;;;26.12;46.69
71344;BME280;59146;43.850;25.948;2023-07-09T03:29:44;101382.00;;;26.92;45.20
71344;BME280;59146;43.850;25.948;2023-07-09T03:32:09;101369.06;;;26.73;45.14
71344;BME280;59146;43.850;25.948;2023-07-09T03:34:35;101373.41;;;26.74;45.15
71344;BME280;59146;43.850;25.948;2023-07-09T03:37:00;101348.66;;;28.21;42.26
71344;BME280;59146;43.850;25.948;2023-07-09T03:39:26;101361.25;;;29.06;40.29
71344;BME280;59146;43.850;25.948;2023-07-09T03:41:51;101325.47;;;29.27;39.16
71344;BME280;59146;43.850;25.948;2023-07-09T03:44:16;101375.41;;;29.85;38.42
71344;BME280;59146;43.850;25.948;2023-07-09T03:46:42;101357.38;;;29.51;38.65
71344;BME280;59146;43.850;25.948;2023-07-09T03:49:07;101348.38;;;29.02;40.06
71344;BME280;59146;43.850;25.948;2023-07-09T03:51:32;101363.78;;;29.78;38.54
71344;BME280;59146;43.850;25.948;2023-07-09T03:53:58;101370.78;;;30.34;37.85
71344;BME280;59146;43.850;25.948;2023-07-09T03:56:23;101354.94;;;30.18;37.62
71344;BME280;59146;43.850;25.948;2023-07-09T03:58:49;101387.63;;;30.43;37.84
71344;BME280;59146;43.850;25.948;2023-07-09T04:01:14;101392.38;;;30.95;37.33
71344;BME280;59146;43.850;25.948;2023-07-09T04:03:41;101378.31;;;31.38;36.28
71344;BME280;59146;43.850;25.948;2023-07-09T04:06:07;101375.34;;;30.88;37.44
71344;BME280;59146;43.850;25.948;2023-07-09T04:08:32;101384.00;;;30.70;38.10
71344;BME280;59146;43.850;25.948;2023-07-09T04:11:02;101385.72;;;30.91;38.06
71344;BME280;59146;43.850;25.948;2023-07-09T04:13:27;101365.00;;;31.04;37.82
71344;BME280;59146;43.850;25.948;2023-07-09T04:15:54;101340.25;;;30.75;38.52
71344;BME280;59146;43.850;25.948;2023-07-09T04:18:19;101349.69;;;31.31;37.29
71344;BME280;59146;43.850;25.948;2023-07-09T04:20:49;101375.34;;;30.88;38.57
71344;BME280;59146;43.850;25.948;2023-07-09T04:23:15;101368.25;;;30.80;39.10
71344;BME280;59146;43.850;25.948;2023-07-09T04:25:40;101393.66;;;31.05;39.19
71344;BME280;59146;43.850;25.948;2023-07-09T04:28:06;101395.94;;;31.02;39.09
71344;BME280;59146;43.850;25.948;2023-07-09T04:30:31;101377.50;;;31.18;39.07
71344;BME280;59146;43.850;25.948;2023-07-09T04:32:57;101382.91;;;31.71;37.88
71344;BME280;59146;43.850;25.948;2023-07-09T04:35:22;101394.97;;;30.69;40.10
71344;BME280;59146;43.850;25.948;2023-07-09T04:37:49;101347.81;;;31.18;38.62
71344;BME280;59146;43.850;25.948;2023-07-09T04:40:14;101393.91;;;31.82;38.05
71344;BME280;59146;43.850;25.948;2023-07-09T04:42:41;101342.16;;;31.07;39.13
71344;BME280;59146;43.850;25.948;2023-07-09T04:45:08;101390.41;;;31.43;39.01
71344;BME280;59146;43.850;25.948;2023-07-09T04:47:34;101370.56;;;30.90;39.52
71344;BME280;59146;43.850;25.948;2023-07-09T04:50:00;101361.75;;;29.59;41.82
71344;BME280;59146;43.850;25.948;2023-07-09T04:52:25;101359.84;;;29.74;41.84
71344;BME280;59146;43.850;25.948;2023-07-09T04:54:50;101365.72;;;30.66;39.47
71344;BME280;59146;43.850;25.948;2023-07-09T04:57:16;101329.75;;;31.12;38.70
71344;BME280;59146;43.850;25.948;2023-07-09T04:59:42;101349.28;;;29.51;41.21
71344;BME280;59146;43.850;25.948;2023-07-09T05:02:07;101399.00;;;29.55;42.73
71344;BME280;59146;43.850;25.948;2023-07-09T05:04:33;101403.66;;;29.68;42.22
71344;BME280;59146;43.850;25.948;2023-07-09T05:06:59;101370.47;;;29.61;41.87
71344;BME280;59146;43.850;25.948;2023-07-09T05:09:24;101348.53;;;28.94;42.94
71344;BME280;59146;43.850;25.948;2023-07-09T05:11:50;101365.88;;;28.41;44.77
71344;BME280;59146;43.850;25.948;2023-07-09T05:14:18;101396.81;;;28.37;45.96
71344;BME280;59146;43.850;25.948;2023-07-09T05:16:44;101346.31;;;27.89;45.70
71344;BME280;59146;43.850;25.948;2023-07-09T05:19:11;101370.53;;;28.18;45.27
71344;BME280;59146;43.850;25.948;2023-07-09T05:21:36;101337.38;;;28.11;44.52
71344;BME280;59146;43.850;25.948;2023-07-09T05:24:02;101376.28;;;28.15;45.53
71344;BME280;59146;43.850;25.948;2023-07-09T05:26:27;101392.28;;;28.08;46.69
71344;BME280;59146;43.850;25.948;2023-07-09T05:28:54;101363.03;;;27.62;48.00
71344;BME280;59146;43.850;25.948;2023-07-09T05:31:22;101380.88;;;27.92;48.62
71344;BME280;59146;43.850;25.948;2023-07-09T05:33:47;101392.91;;;27.44;49.49
71344;BME280;59146;43.850;25.948;2023-07-09T05:36:12;101358.41;;;27.56;49.27
71344;BME280;59146;43.850;25.948;2023-07-09T05:38:46;101403.63;;;27.44;50.91
71344;BME280;59146;43.850;25.948;2023-07-09T05:41:13;101343.47;;;27.16;51.15
71344;BME280;59146;43.850;25.948;2023-07-09T05:43:42;101393.22;;;27.18;52.34
71344;BME280;59146;43.850;25.948;2023-07-09T05:46:08;101360.44;;;26.86;53.17
71344;BME280;59146;43.850;25.948;2023-07-09T05:48:33;101353.63;;;26.75;53.59
71344;BME280;59146;43.850;25.948;2023-07-09T05:50:59;101386.69;;;27.21;53.44
71344;BME280;59146;43.850;25.948;2023-07-09T05:53:24;101375.19;;;27.87;50.77
71344;BME280;59146;43.850;25.948;2023-07-09T05:55:54;101411.50;;;27.45;53.24
71344;BME280;59146;43.850;25.948;2023-07-09T05:58:20;101386.84;;;27.19;53.42
71344;BME280;59146;43.850;25.948;2023-07-09T06:00:45;101377.53;;;27.52;53.23
71344;BME280;59146;43.850;25.948;2023-07-09T06:03:10;101346.38;;;27.51;52.70
71344;BME280;59146;43.850;25.948;2023-07-09T06:05:36;101370.69;;;26.82;55.08
71344;BME280;59146;43.850;25.948;2023-07-09T06:08:03;101386.84;;;27.19;54.70
71344;BME280;59146;43.850;25.948;2023-07-09T06:10:29;101375.00;;;27.36;54.23
71344;BME280;59146;43.850;25.948;2023-07-09T06:12:55;101386.78;;;27.35;54.80
71344;BME280;59146;43.850;25.948;2023-07-09T06:15:26;101387.16;;;27.24;54.85
71344;BME280;59146;43.850;25.948;2023-07-09T06:17:52;101303.97;;;26.56;55.90
71344;BME280;59146;43.850;25.948;2023-07-09T06:20:17;101340.22;;;26.75;55.68
71344;BME280;59146;43.850;25.948;2023-07-09T06:22:43;101295.16;;;27.01;54.75
71344;BME280;59146;43.850;25.948;2023-07-09T06:25:08;101390.38;;;27.42;54.87
71344;BME280;59146;43.850;25.948;2023-07-09T06:27:34;101367.91;;;27.43;54.34
71344;BME280;59146;43.850;25.948;2023-07-09T06:29:59;101340.59;;;27.17;55.53
71344;BME280;59146;43.850;25.948;2023-07-09T06:32:26;101353.78;;;27.49;54.27
71344;BME280;59146;43.850;25.948;2023-07-09T06:34:51;101373.22;;;27.51;53.89
71344;BME280;59146;43.850;25.948;2023-07-09T06:37:17;101330.31;;;27.81;53.23
71344;BME280;59146;43.850;25.948;2023-07-09T06:39:43;101351.63;;;27.97;52.21
71344;BME280;59146;43.850;25.948;2023-07-09T06:42:08;101332.16;;;27.95;52.82
71344;BME280;59146;43.850;25.948;2023-07-09T06:44:33;101382.66;;;28.28;52.20
71344;BME280;59146;43.850;25.948;2023-07-09T06:46:59;101372.09;;;28.27;51.96
71344;BME280;59146;43.850;25.948;2023-07-09T06:49:24;101378.38;;;28.63;51.31
71344;BME280;59146;43.850;25.948;2023-07-09T06:51:50;101379.66;;;28.67;50.42
71344;BME280;59146;43.850;25.948;2023-07-09T06:54:15;101286.00;;;27.99;50.78
71344;BME280;59146;43.850;25.948;2023-07-09T06:56:41;101381.75;;;28.86;49.64
71344;BME280;59146;43.850;25.948;2023-07-09T06:59:07;101334.47;;;28.42;51.08
71344;BME280;59146;43.850;25.948;2023-07-09T07:01:32;101342.56;;;28.77;49.44
71344;BME280;59146;43.850;25.948;2023-07-09T07:03:58;101348.78;;;28.78;48.82
71344;BME280;59146;43.850;25.948;2023-07-09T07:06:23;101331.31;;;28.88;48.80
71344;BME280;59146;43.850;25.948;2023-07-09T07:08:49;101371.84;;;29.29;47.23
71344;BME280;59146;43.850;25.948;2023-07-09T07:11:14;101339.00;;;29.34;44.05
71344;BME280;59146;43.850;25.948;2023-07-09T07:13:40;101374.16;;;29.81;44.21
71344;BME280;59146;43.850;25.948;2023-07-09T07:16:09;101372.94;;;29.83;44.09
71344;BME280;59146;43.850;25.948;2023-07-09T07:18:35;101357.78;;;29.55;44.50
71344;BME280;59146;43.850;25.948;2023-07-09T07:21:02;101322.69;;;28.99;44.06
71344;BME280;59146;43.850;25.948;2023-07-09T07:23:27;101275.56;;;29.03;42.15
71344;BME280;59146;43.850;25.948;2023-07-09T07:25:53;101320.75;;;29.57;40.92
71344;BME280;59146;43.850;25.948;2023-07-09T07:28:20;101342.34;;;29.91;36.57
71344;BME280;59146;43.850;25.948;2023-07-09T07:30:45;101352.81;;;29.79;38.80
71344;BME280;59146;43.850;25.948;2023-07-09T07:33:12;101321.72;;;29.77;41.37
71344;BME280;59146;43.850;25.948;2023-07-09T07:35:38;101349.28;;;30.47;35.76
71344;BME280;59146;43.850;25.948;2023-07-09T07:38:03;101358.41;;;30.53;34.47
71344;BME280;59146;43.850;25.948;2023-07-09T07:40:29;101360.75;;;30.22;37.27
71344;BME280;59146;43.850;25.948;2023-07-09T07:42:54;101307.19;;;30.06;38.05
71344;BME280;59146;43.850;25.948;2023-07-09T07:45:20;101305.91;;;29.95;37.10
71344;BME280;59146;43.850;25.948;2023-07-09T07:47:46;101308.06;;;30.19;35.59
71344;BME280;59146;43.850;25.948;2023-07-09T07:50:11;101353.91;;;30.67;35.09
71344;BME280;59146;43.850;25.948;2023-07-09T07:52:36;101327.63;;;30.88;32.26
71344;BME280;59146;43.850;25.948;2023-07-09T07:55:06;101324.84;;;30.62;33.79
71344;BME280;59146;43.850;25.948;2023-07-09T07:57:32;101302.75;;;30.93;32.08
71344;BME280;59146;43.850;25.948;2023-07-09T07:59:58;101297.28;;;30.67;34.58
71344;BME280;59146;43.850;25.948;2023-07-09T08:02:24;101303.09;;;30.77;33.00
71344;BME280;59146;43.850;25.948;2023-07-09T08:04:50;101336.63;;;30.54;35.16
71344;BME280;59146;43.850;25.948;2023-07-09T08:07:17;101283.50;;;30.42;35.29
71344;BME280;59146;43.850;25.948;2023-07-09T08:09:44;101197.41;;;30.21;34.75
71344;BME280;59146;43.850;25.948;2023-07-09T08:12:10;101292.16;;;30.91;32.54
71344;BME280;59146;43.850;25.948;2023-07-09T08:14:38;101289.03;;;31.01;31.57
71344;BME280;59146;43.850;25.948;2023-07-09T08:17:04;101259.75;;;30.85;29.33
71344;BME280;59146;43.850;25.948;2023-07-09T08:19:31;101310.59;;;30.88;29.98
71344;BME280;59146;43.850;25.948;2023-07-09T08:21:56;101317.22;;;30.79;30.58
71344;BME280;59146;43.850;25.948;2023-07-09T08:24:22;101267.81;;;30.72;31.25
71344;BME280;59146;43.850;25.948;2023-07-09T08:26:47;101237.94;;;30.53;31.23
71344;BME280;59146;43.850;25.948;2023-07-09T08:29:13;101312.50;;;31.13;28.80
71344;BME280;59146;43.850;25.948;2023-07-09T08:31:38;101272.03;;;31.07;28.29
71344;BME280;59146;43.850;25.948;2023-07-09T08:34:05;101307.09;;;31.59;28.56
71344;BME280;59146;43.850;25.948;2023-07-09T08:36:31;101309.84;;;31.40;28.94
71344;BME280;59146;43.850;25.948;2023-07-09T08:38:56;101268.31;;;31.01;29.66
71344;BME280;59146;43.850;25.948;2023-07-09T08:47:08;101318.41;;;30.09;27.90
71344;BME280;59146;43.850;25.948;2023-07-09T08:49:47;101276.66;;;29.92;29.87
71344;BME280;59146;43.850;25.948;2023-07-09T08:54:47;101244.19;;;29.72;29.72
71344;BME280;59146;43.850;25.948;2023-07-09T08:57:21;101276.78;;;30.18;26.92
71344;BME280;59146;43.850;25.948;2023-07-09T08:59:50;101307.75;;;30.35;27.25
71344;BME280;59146;43.850;25.948;2023-07-09T09:02:33;101268.38;;;29.94;29.06
71344;BME280;59146;43.850;25.948;2023-07-09T09:05:03;101316.59;;;29.82;28.53
71344;BME280;59146;43.850;25.948;2023-07-09T09:07:43;101326.47;;;30.09;26.33
71344;BME280;59146;43.850;25.948;2023-07-09T09:10:14;101286.41;;;29.93;27.45
71344;BME280;59146;43.850;25.948;2023-07-09T09:15:27;101301.16;;;30.44;24.90
71344;BME280;59146;43.850;25.948;2023-07-09T09:17:57;101308.06;;;30.67;25.13
71344;BME280;59146;43.850;25.948;2023-07-09T09:20:23;101282.53;;;30.69;24.82
71344;BME280;59146;43.850;25.948;2023-07-09T09:22:54;101260.53;;;30.52;24.34
71344;BME280;59146;43.850;25.948;2023-07-09T09:25:28;101306.63;;;30.84;23.99
71344;BME280;59146;43.850;25.948;2023-07-09T09:27:54;101294.41;;;30.81;25.29
71344;BME280;59146;43.850;25.948;2023-07-09T09:30:22;101264.88;;;30.47;24.73
71344;BME280;59146;43.850;25.948;2023-07-09T09:32:54;101225.41;;;30.26;25.71
71344;BME280;59146;43.850;25.948;2023-07-09T09:35:26;101265.97;;;30.72;24.82
71344;BME280;59146;43.850;25.948;2023-07-09T09:37:56;101312.09;;;31.10;25.43
71344;BME280;59146;43.850;25.948;2023-07-09T09:40:23;101217.53;;;30.18;25.12
71344;BME280;59146;43.850;25.948;2023-07-09T09:42:55;101300.19;;;30.72;23.97
71344;BME280;59146;43.850;25.948;2023-07-09T09:45:26;101272.38;;;30.78;23.85
71344;BME280;59146;43.850;25.948;2023-07-09T09:47:52;101299.00;;;31.33;24.85
71344;BME280;59146;43.850;25.948;2023-07-09T09:50:20;101229.06;;;30.86;24.60
71344;BME280;59146;43.850;25.948;2023-07-09T09:52:47;101254.81;;;31.21;25.15
71344;BME280;59146;43.850;25.948;2023-07-09T09:55:24;101288.22;;;31.26;23.58
71344;BME280;59146;43.850;25.948;2023-07-09T09:57:52;101289.03;;;30.88;23.69
71344;BME280;59146;43.850;25.948;2023-07-09T10:00:22;101308.16;;;30.99;24.84
71344;BME280;59146;43.850;25.948;2023-07-09T10:02:48;101306.91;;;31.02;25.21
71344;BME280;59146;43.850;25.948;2023-07-09T10:05:15;101288.63;;;30.91;23.82
71344;BME280;59146;43.850;25.948;2023-07-09T10:07:51;101284.41;;;30.75;23.93
71344;BME280;59146;43.850;25.948;2023-07-09T10:10:23;101293.00;;;31.18;25.22
71344;BME280;59146;43.850;25.948;2023-07-09T10:12:56;101276.19;;;31.42;24.52
71344;BME280;59146;43.850;25.948;2023-07-09T10:15:48;101294.03;;;31.50;23.63
71344;BME280;59146;43.850;25.948;2023-07-09T10:21:35;101291.75;;;31.07;21.97
71344;BME280;59146;43.850;25.948;2023-07-09T10:26:39;101286.03;;;30.56;21.48
71344;BME280;59146;43.850;25.948;2023-07-09T10:34:50;101289.34;;;30.45;24.43
71344;BME280;59146;43.850;25.948;2023-07-09T10:40:08;101274.09;;;30.98;23.72
71344;BME280;59146;43.850;25.948;2023-07-09T10:42:43;101231.94;;;30.84;24.39
71344;BME280;59146;43.850;25.948;2023-07-09T10:45:12;101218.50;;;30.91;22.87
71344;BME280;59146;43.850;25.948;2023-07-09T10:47:44;101274.09;;;31.31;23.72
71344;BME280;59146;43.850;25.948;2023-07-09T10:50:30;101259.13;;;31.61;22.73
71344;BME280;59146;43.850;25.948;2023-07-09T10:53:04;101228.78;;;31.66;22.35
71344;BME280;59146;43.850;25.948;2023-07-09T10:55:52;101213.44;;;31.60;22.30
71344;BME280;59146;43.850;25.948;2023-07-09T11:00:53;101226.72;;;31.55;21.79
71344;BME280;59146;43.850;25.948;2023-07-09T11:03:33;101264.31;;;31.69;22.43
71344;BME280;59146;43.850;25.948;2023-07-09T11:05:59;101247.28;;;31.36;22.57
71344;BME280;59146;43.850;25.948;2023-07-09T11:08:38;101269.13;;;31.54;20.85
71344;BME280;59146;43.850;25.948;2023-07-09T11:11:21;101202.31;;;31.10;20.63
71344;BME280;59146;43.850;25.948;2023-07-09T11:13:56;101215.34;;;31.33;20.98
71344;BME280;59146;43.850;25.948;2023-07-09T11:16:32;101216.56;;;31.57;20.59
71344;BME280;59146;43.850;25.948;2023-07-09T11:19:00;101241.19;;;31.80;21.16
71344;BME280;59146;43.850;25.948;2023-07-09T11:21:26;101225.84;;;31.74;21.50
71344;BME280;59146;43.850;25.948;2023-07-09T11:23:54;101228.78;;;31.59;21.93
71344;BME280;59146;43.850;25.948;2023-07-09T11:29:16;101238.47;;;31.86;22.78
71344;BME280;59146;43.850;25.948;2023-07-09T11:31:41;101239.44;;;31.48;21.83
71344;BME280;59146;43.850;25.948;2023-07-09T11:36:59;101242.28;;;31.66;22.13
71344;BME280;59146;43.850;25.948;2023-07-09T11:39:43;101198.84;;;31.74;21.38
71344;BME280;59146;43.850;25.948;2023-07-09T11:47:36;101205.97;;;32.13;22.76
71344;BME280;59146;43.850;25.948;2023-07-09T11:50:26;101191.03;;;32.03;22.84
71344;BME280;59146;43.850;25.948;2023-07-09T11:52:56;101193.06;;;31.57;22.92
71344;BME280;59146;43.850;25.948;2023-07-09T11:55:38;101233.25;;;31.91;22.55
71344;BME280;59146;43.850;25.948;2023-07-09T11:58:04;101191.28;;;31.95;23.83
71344;BME280;59146;43.850;25.948;2023-07-09T12:00:37;101178.44;;;31.84;22.65
71344;BME280;59146;43.850;25.948;2023-07-09T12:03:05;101225.94;;;32.43;21.71
71344;BME280;59146;43.850;25.948;2023-07-09T12:05:31;101190.28;;;32.28;21.67
71344;BME280;59146;43.850;25.948;2023-07-09T12:07:58;101211.16;;;32.45;23.10
71344;BME280;59146;43.850;25.948;2023-07-09T12:10:27;101215.03;;;32.25;23.07
71344;BME280;59146;43.850;25.948;2023-07-09T12:12:55;101210.06;;;31.71;23.93
71344;BME280;59146;43.850;25.948;2023-07-09T12:15:27;101213.41;;;31.73;23.96
71344;BME280;59146;43.850;25.948;2023-07-09T12:18:03;101164.47;;;31.30;26.24
71344;BME280;59146;43.850;25.948;2023-07-09T12:20:35;101178.09;;;31.68;25.61
71344;BME280;59146;43.850;25.948;2023-07-09T12:23:11;101168.06;;;31.81;24.94
71344;BME280;59146;43.850;25.948;2023-07-09T12:25:37;101179.63;;;32.01;23.87
71344;BME280;59146;43.850;25.948;2023-07-09T12:28:02;101189.47;;;31.76;26.22
71344;BME280;59146;43.850;25.948;2023-07-09T12:30:33;101156.81;;;31.84;28.59
71344;BME280;59146;43.850;25.948;2023-07-09T12:32:58;101147.66;;;31.98;25.16
71344;BME280;59146;43.850;25.948;2023-07-09T12:35:24;101190.63;;;32.38;24.21
71344;BME280;59146;43.850;25.948;2023-07-09T12:37:50;101155.28;;;32.08;23.38
71344;BME280;59146;43.850;25.948;2023-07-09T12:40:21;101196.78;;;31.69;26.25
71344;BME280;59146;43.850;25.948;2023-07-09T12:42:47;101200.53;;;31.62;26.70
71344;BME280;59146;43.850;25.948;2023-07-09T12:45:19;101201.63;;;31.34;26.95
71344;BME280;59146;43.850;25.948;2023-07-09T12:47:46;101209.91;;;31.59;28.53
71344;BME280;59146;43.850;25.948;2023-07-09T12:50:27;101205.72;;;32.21;26.99
71344;BME280;59146;43.850;25.948;2023-07-09T12:52:55;101175.41;;;32.12;26.04
71344;BME280;59146;43.850;25.948;2023-07-09T12:55:22;101184.16;;;32.39;25.94
71344;BME280;59146;43.850;25.948;2023-07-09T12:57:51;101153.06;;;32.61;24.96
71344;BME280;59146;43.850;25.948;2023-07-09T13:00:17;101145.41;;;32.20;29.11
71344;BME280;59146;43.850;25.948;2023-07-09T13:02:44;101177.72;;;32.46;28.10
71344;BME280;59146;43.850;25.948;2023-07-09T13:05:21;101147.53;;;32.11;26.47
71344;BME280;59146;43.850;25.948;2023-07-09T13:07:51;101147.38;;;32.06;26.19
71344;BME280;59146;43.850;25.948;2023-07-09T13:10:18;101174.47;;;32.62;26.00
71344;BME280;59146;43.850;25.948;2023-07-09T13:12:46;101160.16;;;32.55;26.40
71344;BME280;59146;43.850;25.948;2023-07-09T13:18:03;101172.38;;;32.33;28.61
71344;BME280;59146;43.850;25.948;2023-07-09T13:20:31;101147.00;;;32.34;27.11
71344;BME280;59146;43.850;25.948;2023-07-09T13:22:57;101152.72;;;32.51;25.29
71344;BME280;59146;43.850;25.948;2023-07-09T13:25:23;101167.16;;;32.87;25.29
71344;BME280;59146;43.850;25.948;2023-07-09T13:27:49;101166.88;;;32.96;25.57
71344;BME280;59146;43.850;25.948;2023-07-09T13:30:15;101109.16;;;32.03;25.46
71344;BME280;59146;43.850;25.948;2023-07-09T13:32:40;101110.31;;;32.13;25.33
71344;BME280;59146;43.850;25.948;2023-07-09T13:35:17;101130.97;;;32.64;23.43